Time;durP1;ratioP1;P1;durP2;ratioP2;P2;SDS_P1;SDS_P2;PMS_P1;PMS_P2;Temp;Humidity;BMP_temperature;BMP_pressure;BME280_temperature;BME280_humidity;BME280_pressure;Samples;Min_cycle;Max_cycle;Signal;HPM_P1;HPM_P2
2022/10/24 00:01:44;;;;;;;3.63;1.50;;;23.90;69.90;;;;;;5124856;27;20455;-74
2022/10/24 00:04:12;;;;;;;2.33;1.90;;;23.90;69.90;;;;;;5128724;27;20485;-73
2022/10/24 00:06:41;;;;;;;2.20;1.50;;;23.90;69.90;;;;;;5131797;27;20438;-73
2022/10/24 00:09:09;;;;;;;2.37;1.43;;;23.90;69.90;;;;;;5113787;27;20482;-73
2022/10/24 00:11:37;;;;;;;2.00;1.60;;;23.90;69.90;;;;;;5132807;27;20859;-73
2022/10/24 00:14:06;;;;;;;2.30;1.70;;;23.90;69.90;;;;;;5124471;27;20479;-73
2022/10/24 00:16:35;;;;;;;1.87;1.77;;;23.90;69.90;;;;;;5115730;28;20448;-73
2022/10/24 00:19:04;;;;;;;2.33;1.80;;;23.90;69.90;;;;;;5126958;28;20468;-73
2022/10/24 00:21:32;;;;;;;1.67;1.57;;;23.90;69.90;;;;;;5121476;28;20448;-73
2022/10/24 00:24:00;;;;;;;1.30;1.20;;;23.90;69.90;;;;;;5122448;28;20473;-73
2022/10/24 00:26:28;;;;;;;3.37;1.60;;;23.90;69.90;;;;;;5111547;28;20527;-73
2022/10/24 00:28:57;;;;;;;4.40;1.90;;;23.90;69.90;;;;;;5116011;28;20495;-73
2022/10/24 00:31:25;;;;;;;2.07;1.87;;;23.90;69.90;;;;;;5132108;28;20459;-73
2022/10/24 00:33:55;;;;;;;3.10;1.73;;;23.90;69.90;;;;;;5134117;27;20438;-73
2022/10/24 00:36:24;;;;;;;2.37;1.53;;;23.90;69.90;;;;;;5134373;27;20507;-73
2022/10/24 00:38:52;;;;;;;3.47;2.30;;;23.90;69.90;;;;;;5121989;27;20494;-73
2022/10/24 00:41:23;;;;;;;1.60;1.50;;;23.90;69.90;;;;;;5119224;27;20469;-73
2022/10/24 00:43:51;;;;;;;1.53;1.43;;;23.90;69.90;;;;;;5115723;28;20439;-73
2022/10/24 00:46:20;;;;;;;2.03;1.43;;;23.90;69.90;;;;;;5116353;28;20850;-74
2022/10/24 00:48:52;;;;;;;3.90;1.30;;;23.90;69.90;;;;;;5117311;27;20465;-74
2022/10/24 00:51:25;;;;;;;2.70;2.00;;;23.90;69.90;;;;;;5127185;27;20558;-74
2022/10/24 00:53:59;;;;;;;2.90;1.80;;;23.90;69.90;;;;;;5121165;27;20451;-73
2022/10/24 00:56:30;;;;;;;7.03;2.27;;;23.90;69.90;;;;;;5117708;27;20463;-74
2022/10/24 00:59:02;;;;;;;2.50;1.60;;;23.80;69.90;;;;;;5120156;27;20458;-73
2022/10/24 01:01:30;;;;;;;4.00;1.87;;;23.80;69.90;;;;;;5132626;27;20466;-73
2022/10/24 01:03:58;;;;;;;2.67;2.00;;;23.90;69.90;;;;;;5132780;27;20464;-74
2022/10/24 01:06:42;;;;;;;1.90;1.37;;;23.80;69.90;;;;;;5134194;27;20801;-74
2022/10/24 01:09:24;;;;;;;2.50;1.57;;;23.90;69.90;;;;;;5129205;27;20806;-74
2022/10/24 01:12:03;;;;;;;3.33;2.00;;;23.80;69.90;;;;;;5115209;27;20423;-74
2022/10/24 01:14:42;;;;;;;2.10;1.60;;;23.80;69.90;;;;;;5122841;27;20452;-74
2022/10/24 01:17:16;;;;;;;1.73;1.30;;;23.80;69.90;;;;;;5118821;27;20450;-74
2022/10/24 01:20:13;;;;;;;1.93;1.60;;;23.80;69.90;;;;;;5115790;27;20847;-74
2022/10/24 01:22:56;;;;;;;1.60;1.30;;;23.80;69.80;;;;;;5120236;27;20964;-74
2022/10/24 01:25:37;;;;;;;2.23;1.63;;;23.80;69.90;;;;;;5115632;27;20510;-74
2022/10/24 01:28:11;;;;;;;1.57;1.47;;;23.80;69.90;;;;;;5115155;28;20533;-74
2022/10/24 01:30:44;;;;;;;2.00;1.47;;;23.80;69.90;;;;;;5131983;27;20469;-74
2022/10/24 01:33:21;;;;;;;1.57;1.23;;;23.80;69.80;;;;;;5119943;27;20436;-74
2022/10/24 01:35:54;;;;;;;2.63;1.70;;;23.80;69.80;;;;;;5114576;27;20463;-73
2022/10/24 01:38:28;;;;;;;2.20;1.40;;;23.80;69.80;;;;;;5114771;27;20442;-74
2022/10/24 01:41:00;;;;;;;2.13;1.30;;;23.80;69.80;;;;;;5126774;27;20882;-74
2022/10/24 01:43:31;;;;;;;2.73;1.53;;;23.80;69.80;;;;;;5135114;27;20777;-74
2022/10/24 01:46:08;;;;;;;1.47;1.37;;;23.80;69.80;;;;;;5128767;27;20472;-73
2022/10/24 01:48:41;;;;;;;3.00;1.47;;;23.80;69.80;;;;;;5134257;27;20767;-74
2022/10/24 01:51:13;;;;;;;1.20;1.10;;;23.80;69.80;;;;;;5125777;27;21001;-76
2022/10/24 01:53:43;;;;;;;1.63;1.20;;;23.80;69.80;;;;;;5123323;27;20448;-74
2022/10/24 01:56:11;;;;;;;1.87;1.53;;;23.80;69.80;;;;;;5119652;27;20455;-74
2022/10/24 01:58:39;;;;;;;1.63;1.53;;;23.80;69.80;;;;;;5121995;27;20455;-74
2022/10/24 02:01:12;;;;;;;1.80;1.40;;;23.80;69.80;;;;;;5122493;27;20463;-73
2022/10/24 02:03:46;;;;;;;1.70;1.33;;;23.80;69.80;;;;;;5123505;27;20455;-74
2022/10/24 02:06:19;;;;;;;1.20;1.10;;;23.80;69.80;;;;;;5123316;27;20469;-74
2022/10/24 02:08:52;;;;;;;1.47;1.30;;;23.80;69.80;;;;;;5131775;27;20446;-74
2022/10/24 02:11:20;;;;;;;2.10;1.63;;;23.80;69.90;;;;;;5113180;28;20455;-74
2022/10/24 02:13:53;;;;;;;1.10;1.10;;;23.80;69.80;;;;;;5132952;27;20522;-73
2022/10/24 02:16:22;;;;;;;2.77;1.67;;;23.80;69.80;;;;;;5134254;27;20460;-74
2022/10/24 02:18:55;;;;;;;1.30;1.20;;;23.80;69.80;;;;;;5134235;27;20438;-74
2022/10/24 02:21:31;;;;;;;1.70;1.50;;;23.80;69.90;;;;;;5123972;27;20456;-73
2022/10/24 02:24:02;;;;;;;1.50;1.40;;;23.80;69.90;;;;;;5134977;27;20453;-73
2022/10/24 02:26:34;;;;;;;2.30;1.63;;;23.80;69.90;;;;;;5131195;27;20480;-74
2022/10/24 02:29:08;;;;;;;2.40;1.27;;;23.80;69.90;;;;;;5122986;27;20458;-73
2022/10/24 02:31:43;;;;;;;1.03;0.93;;;23.80;69.90;;;;;;5121756;27;20477;-74
2022/10/24 02:34:12;;;;;;;1.43;1.10;;;23.80;69.90;;;;;;5134744;27;20553;-73
2022/10/24 02:36:42;;;;;;;2.60;1.30;;;23.80;69.90;;;;;;5117677;27;20460;-74
2022/10/24 02:39:12;;;;;;;1.50;1.23;;;23.80;69.90;;;;;;5119140;27;20463;-74
2022/10/24 02:41:44;;;;;;;1.40;1.30;;;23.80;69.90;;;;;;5113422;28;20529;-74
2022/10/24 02:44:15;;;;;;;1.43;1.33;;;23.80;69.90;;;;;;5114533;28;20455;-75
2022/10/24 02:46:46;;;;;;;1.37;1.20;;;23.80;69.90;;;;;;5113915;28;20467;-74
2022/10/24 02:49:14;;;;;;;1.43;1.33;;;23.80;69.90;;;;;;5118405;27;20563;-74
2022/10/24 02:51:45;;;;;;;1.93;1.27;;;23.80;69.90;;;;;;5113425;28;20966;-74
2022/10/24 02:54:13;;;;;;;1.80;1.70;;;23.80;69.90;;;;;;5112734;28;20529;-74
2022/10/24 02:56:48;;;;;;;1.73;1.30;;;23.70;69.90;;;;;;5124582;27;20810;-74
2022/10/24 02:59:16;;;;;;;1.47;1.30;;;23.70;69.90;;;;;;5133036;27;20478;-73
2022/10/24 03:01:46;;;;;;;1.57;1.23;;;23.70;69.90;;;;;;5133976;27;20442;-74
2022/10/24 03:04:14;;;;;;;2.30;1.23;;;23.70;69.90;;;;;;5134848;27;20452;-74
2022/10/24 03:06:43;;;;;;;2.00;1.30;;;23.70;69.90;;;;;;5132151;27;20469;-74
2022/10/24 03:09:11;;;;;;;3.40;2.47;;;23.70;69.90;;;;;;5111997;28;20465;-74
2022/10/24 03:11:39;;;;;;;1.87;1.47;;;23.70;69.90;;;;;;5123617;27;20930;-74
2022/10/24 03:14:07;;;;;;;1.13;1.03;;;23.70;69.90;;;;;;5119173;27;20497;-74
2022/10/24 03:16:35;;;;;;;3.93;1.53;;;23.70;69.90;;;;;;5121558;27;20570;-73
2022/10/24 03:19:05;;;;;;;3.67;1.90;;;23.70;69.90;;;;;;5133282;27;20468;-74
2022/10/24 03:21:33;;;;;;;1.20;0.90;;;23.70;69.90;;;;;;5133700;27;20450;-74
2022/10/24 03:24:01;;;;;;;1.50;1.40;;;23.70;69.80;;;;;;5134061;27;20513;-74
2022/10/24 03:26:29;;;;;;;2.40;1.43;;;23.70;69.80;;;;;;5128807;27;20497;-74
2022/10/24 03:28:57;;;;;;;1.33;1.23;;;23.70;69.80;;;;;;5132292;27;20424;-74
2022/10/24 03:31:26;;;;;;;1.57;1.47;;;23.70;69.80;;;;;;5113533;27;20457;-74
2022/10/24 03:33:54;;;;;;;1.37;1.10;;;23.70;69.80;;;;;;5113008;28;20453;-74
2022/10/24 03:36:24;;;;;;;1.50;1.13;;;23.70;69.80;;;;;;5116708;27;20539;-74
2022/10/24 03:38:52;;;;;;;2.40;1.20;;;23.70;69.90;;;;;;5130330;27;20441;-74
2022/10/24 03:41:20;;;;;;;1.63;1.40;;;23.70;69.80;;;;;;5118639;27;20942;-74
2022/10/24 03:43:48;;;;;;;2.23;1.20;;;23.70;69.80;;;;;;5133211;27;20773;-74
2022/10/24 03:46:16;;;;;;;1.83;1.67;;;23.70;69.90;;;;;;5128712;27;20489;-74
2022/10/24 03:48:44;;;;;;;1.57;1.20;;;23.70;69.80;;;;;;5132755;27;20436;-74
2022/10/24 03:51:12;;;;;;;1.10;1.00;;;23.70;69.80;;;;;;5118657;27;20817;-74
2022/10/24 03:53:42;;;;;;;1.13;1.03;;;23.70;69.80;;;;;;5120573;27;20449;-74
2022/10/24 03:56:10;;;;;;;1.47;1.33;;;23.70;69.80;;;;;;5116551;27;20811;-74
2022/10/24 03:58:38;;;;;;;2.10;1.50;;;23.70;69.80;;;;;;5133445;27;20424;-74
2022/10/24 04:01:08;;;;;;;1.50;1.10;;;23.70;69.80;;;;;;5125925;27;20453;-74
2022/10/24 04:03:37;;;;;;;1.73;1.27;;;23.70;69.80;;;;;;5118599;27;20447;-73
2022/10/24 04:06:05;;;;;;;1.40;1.23;;;23.70;69.80;;;;;;5119400;27;20558;-73
2022/10/24 04:08:33;;;;;;;1.20;1.10;;;23.70;69.80;;;;;;5133096;27;20503;-73
2022/10/24 04:11:03;;;;;;;2.50;1.43;;;23.70;69.80;;;;;;5113927;27;20455;-73
2022/10/24 04:13:32;;;;;;;1.53;1.43;;;23.70;69.80;;;;;;5120315;28;20875;-73
2022/10/24 04:16:00;;;;;;;1.50;1.33;;;23.70;69.80;;;;;;5127391;28;20458;-73
2022/10/24 04:18:28;;;;;;;2.10;1.40;;;23.70;69.80;;;;;;5117020;28;20451;-72
2022/10/24 04:20:56;;;;;;;1.73;1.63;;;23.70;69.80;;;;;;5112777;28;20999;-73
2022/10/24 04:23:25;;;;;;;1.10;1.00;;;23.70;69.80;;;;;;5121047;28;20545;-72
2022/10/24 04:25:54;;;;;;;1.00;0.97;;;23.70;69.80;;;;;;5114123;28;20463;-73
2022/10/24 04:28:23;;;;;;;1.33;1.23;;;23.70;69.80;;;;;;5113246;28;20922;-73
2022/10/24 04:30:54;;;;;;;1.80;1.30;;;23.70;69.80;;;;;;5124153;28;20533;-70
2022/10/24 04:33:23;;;;;;;1.77;1.40;;;23.70;69.80;;;;;;5124820;28;20475;-70
2022/10/24 04:35:52;;;;;;;1.57;1.47;;;23.70;69.90;;;;;;5112059;28;20472;-71
2022/10/24 04:38:21;;;;;;;1.40;1.30;;;23.70;69.90;;;;;;5119976;28;20445;-70
2022/10/24 04:40:51;;;;;;;1.93;1.60;;;23.70;69.90;;;;;;5120914;28;20454;-71
2022/10/24 04:43:21;;;;;;;1.83;1.23;;;23.70;70.00;;;;;;5115730;28;20443;-73
2022/10/24 04:45:51;;;;;;;3.00;1.53;;;23.70;70.00;;;;;;5114043;28;20568;-72
2022/10/24 04:48:19;;;;;;;2.20;1.30;;;23.70;69.90;;;;;;5113334;28;20471;-71
2022/10/24 04:50:48;;;;;;;2.03;1.10;;;23.70;70.00;;;;;;5115861;28;20460;-71
2022/10/24 04:53:16;;;;;;;2.83;1.40;;;23.70;70.00;;;;;;5120451;28;20446;-73
2022/10/24 04:55:45;;;;;;;1.83;1.10;;;23.70;70.20;;;;;;5115840;27;20813;-73
2022/10/24 04:58:13;;;;;;;3.10;2.80;;;23.70;70.20;;;;;;5122609;28;21020;-72
2022/10/24 05:00:45;;;;;;;5.87;1.87;;;23.70;70.30;;;;;;5121895;28;20897;-71
2022/10/24 05:03:15;;;;;;;2.40;1.10;;;23.70;70.30;;;;;;5118362;28;20446;-72
2022/10/24 05:05:43;;;;;;;3.00;1.37;;;23.70;70.30;;;;;;5117475;28;20452;-72
2022/10/24 05:08:11;;;;;;;5.07;1.93;;;23.70;70.40;;;;;;5116213;28;20473;-72
2022/10/24 05:10:40;;;;;;;1.40;1.30;;;23.70;70.40;;;;;;5111123;28;20457;-71
2022/10/24 05:13:08;;;;;;;4.20;1.53;;;23.70;70.40;;;;;;5111034;28;20482;-71
2022/10/24 05:15:36;;;;;;;4.20;1.77;;;23.70;70.50;;;;;;5113374;28;20552;-71
2022/10/24 05:18:04;;;;;;;2.40;1.73;;;23.70;70.60;;;;;;5120000;28;20445;-71
2022/10/24 05:20:34;;;;;;;4.07;1.23;;;23.70;70.60;;;;;;5113762;27;20451;-71
2022/10/24 05:23:02;;;;;;;3.10;2.23;;;23.60;70.60;;;;;;5120180;27;20463;-71
2022/10/24 05:25:30;;;;;;;3.37;1.70;;;23.60;70.60;;;;;;5125617;27;20467;-71
2022/10/24 05:27:58;;;;;;;3.43;1.87;;;23.60;70.50;;;;;;5122487;27;20557;-71
2022/10/24 05:30:27;;;;;;;4.60;1.73;;;23.60;70.60;;;;;;5126552;27;21046;-71
2022/10/24 05:32:55;;;;;;;3.00;1.87;;;23.60;70.60;;;;;;5122301;27;20470;-70
2022/10/24 05:35:23;;;;;;;3.20;1.23;;;23.60;70.60;;;;;;5114002;27;20458;-70
2022/10/24 05:37:52;;;;;;;2.90;1.73;;;23.60;70.60;;;;;;5121490;27;20460;-70
2022/10/24 05:40:20;;;;;;;2.47;1.47;;;23.60;70.60;;;;;;5118304;27;20465;-71
2022/10/24 05:42:51;;;;;;;3.47;1.60;;;23.60;70.60;;;;;;5118411;27;20453;-71
2022/10/24 05:45:19;;;;;;;2.53;1.30;;;23.60;70.60;;;;;;5114600;27;20506;-71
2022/10/24 05:47:47;;;;;;;2.37;1.57;;;23.60;70.60;;;;;;5119664;27;20474;-72
2022/10/24 05:50:16;;;;;;;3.90;2.00;;;23.60;70.70;;;;;;5115844;27;20440;-71
2022/10/24 05:52:44;;;;;;;4.30;1.80;;;23.60;70.80;;;;;;5120244;27;20933;-71
2022/10/24 05:55:15;;;;;;;7.27;2.90;;;23.60;70.70;;;;;;5118075;27;20879;-71
2022/10/24 05:57:45;;;;;;;5.90;3.00;;;23.60;70.80;;;;;;5115859;27;20511;-71
2022/10/24 06:00:16;;;;;;;3.60;3.10;;;23.60;70.80;;;;;;5113101;28;20525;-71
2022/10/24 06:02:45;;;;;;;5.43;2.60;;;23.60;70.80;;;;;;5113828;27;21128;-71
2022/10/24 06:05:18;;;;;;;4.60;2.27;;;23.60;70.80;;;;;;5115172;27;20905;-70
2022/10/24 06:07:47;;;;;;;5.90;2.67;;;23.50;70.70;;;;;;5112026;27;20479;-70
2022/10/24 06:10:17;;;;;;;7.77;3.10;;;23.50;70.70;;;;;;5112483;27;20473;-71
2022/10/24 06:12:45;;;;;;;2.90;2.33;;;23.50;70.80;;;;;;5111743;28;20482;-70
2022/10/24 06:15:14;;;;;;;3.47;2.30;;;23.50;70.70;;;;;;5119052;27;20848;-70
2022/10/24 06:17:42;;;;;;;4.13;2.10;;;23.50;70.70;;;;;;5117398;27;20468;-70
2022/10/24 06:20:10;;;;;;;3.30;1.73;;;23.50;70.80;;;;;;5112953;27;20443;-70
2022/10/24 06:22:39;;;;;;;6.77;3.10;;;23.50;70.70;;;;;;5118351;27;20442;-71
2022/10/24 06:25:07;;;;;;;6.70;2.87;;;23.50;70.70;;;;;;5117759;27;20462;-70
2022/10/24 06:27:37;;;;;;;4.07;2.40;;;23.50;70.70;;;;;;5112395;27;20480;-70
2022/10/24 06:30:09;;;;;;;5.63;2.73;;;23.50;70.70;;;;;;5116146;27;20444;-71
2022/10/24 06:32:37;;;;;;;6.30;2.33;;;23.50;70.70;;;;;;5119558;27;20796;-69
2022/10/24 06:35:12;;;;;;;5.00;2.50;;;23.50;70.70;;;;;;5119677;27;20510;-70
2022/10/24 06:37:40;;;;;;;3.40;2.20;;;23.50;70.80;;;;;;5116447;27;20462;-70
2022/10/24 06:40:14;;;;;;;3.70;2.17;;;23.50;70.80;;;;;;5118735;27;20506;-69
2022/10/24 06:42:44;;;;;;;6.78;3.38;;;23.50;70.90;;;;;;5113103;27;20447;-72
2022/10/24 06:45:12;;;;;;;12.63;3.37;;;23.50;70.90;;;;;;5123330;27;20224;-69
2022/10/24 06:47:40;;;;;;;9.53;2.53;;;23.60;71.10;;;;;;5114036;27;20512;-72
2022/10/24 06:50:09;;;;;;;3.47;2.77;;;23.60;71.20;;;;;;5117458;27;20569;-71
2022/10/24 06:52:37;;;;;;;6.10;2.80;;;23.60;71.00;;;;;;5116848;27;20490;-72
2022/10/24 06:55:06;;;;;;;6.27;2.40;;;23.60;70.90;;;;;;5119997;27;20552;-71
2022/10/24 06:57:34;;;;;;;6.23;2.97;;;23.60;70.90;;;;;;5116576;27;20470;-70
2022/10/24 07:00:05;;;;;;;5.23;2.17;;;23.60;70.90;;;;;;5116546;27;20455;-71
2022/10/24 07:02:33;;;;;;;6.10;2.70;;;23.60;70.90;;;;;;5118811;27;20455;-71
2022/10/24 07:05:01;;;;;;;3.47;2.50;;;23.60;70.90;;;;;;5116320;27;20455;-71
2022/10/24 07:07:29;;;;;;;4.87;2.50;;;23.60;70.90;;;;;;5117115;27;20453;-71
2022/10/24 07:09:58;;;;;;;8.67;2.73;;;23.60;70.90;;;;;;5114909;27;20451;-71
2022/10/24 07:12:26;;;;;;;9.50;2.80;;;23.60;70.90;;;;;;5124787;27;20836;-71
2022/10/24 07:14:54;;;;;;;5.93;2.30;;;23.60;70.90;;;;;;5131694;27;20463;-71
2022/10/24 07:17:24;;;;;;;6.00;2.67;;;23.60;70.90;;;;;;5118183;27;20465;-72
2022/10/24 07:19:53;;;;;;;3.97;2.77;;;23.60;70.90;;;;;;5122746;27;20473;-71
2022/10/24 07:22:22;;;;;;;3.33;2.27;;;23.60;70.90;;;;;;5127396;27;20939;-71
2022/10/24 07:24:52;;;;;;;3.53;1.67;;;23.60;70.90;;;;;;5112252;27;20459;-71
2022/10/24 07:27:21;;;;;;;7.60;3.10;;;23.60;70.90;;;;;;5115721;27;20441;-72
2022/10/24 07:29:50;;;;;;;6.47;2.20;;;23.60;70.80;;;;;;5115582;27;20472;-72
2022/10/24 07:32:18;;;;;;;7.77;2.17;;;23.60;70.80;;;;;;5118357;27;20459;-71
2022/10/24 07:34:48;;;;;;;6.30;2.70;;;23.60;70.80;;;;;;5113163;27;20995;-71
2022/10/24 07:37:17;;;;;;;4.57;2.53;;;23.60;70.80;;;;;;5115415;27;20461;-73
2022/10/24 07:39:45;;;;;;;6.20;2.90;;;23.50;70.90;;;;;;5119942;27;20462;-71
2022/10/24 07:42:14;;;;;;;3.50;1.97;;;23.60;70.90;;;;;;5116382;27;20457;-71
2022/10/24 07:44:42;;;;;;;3.50;2.40;;;23.50;70.90;;;;;;5119385;27;21057;-72
2022/10/24 07:47:11;;;;;;;4.43;2.10;;;23.50;70.90;;;;;;5118755;27;20449;-72
2022/10/24 07:49:39;;;;;;;4.53;2.60;;;23.50;70.90;;;;;;5115538;27;20466;-73
2022/10/24 07:52:11;;;;;;;3.93;2.10;;;23.60;70.90;;;;;;5120050;27;20453;-71
2022/10/24 07:54:39;;;;;;;6.17;2.03;;;23.50;70.90;;;;;;5115719;27;20460;-71
2022/10/24 07:57:07;;;;;;;5.00;2.30;;;23.50;70.90;;;;;;5114362;27;20477;-71
2022/10/24 07:59:36;;;;;;;10.80;2.77;;;23.50;70.90;;;;;;5119337;27;20558;-71
2022/10/24 08:02:11;;;;;;;4.53;2.37;;;23.50;70.90;;;;;;5116944;27;20553;-72
2022/10/24 08:04:39;;;;;;;4.73;2.30;;;23.50;70.90;;;;;;5117910;27;20458;-72
2022/10/24 08:07:12;;;;;;;4.77;2.50;;;23.60;70.90;;;;;;5122300;27;20455;-71
2022/10/24 08:09:44;;;;;;;3.23;1.70;;;23.60;70.80;;;;;;5125239;27;21347;-71
2022/10/24 08:12:12;;;;;;;2.80;1.80;;;23.60;70.80;;;;;;5116954;27;20454;-72
2022/10/24 08:14:41;;;;;;;3.03;2.30;;;23.60;70.80;;;;;;5118684;28;20460;-72
2022/10/24 08:17:09;;;;;;;4.60;1.97;;;23.60;70.80;;;;;;5116237;28;20964;-71
2022/10/24 08:19:40;;;;;;;3.00;2.20;;;23.60;70.80;;;;;;5119633;28;20466;-71
2022/10/24 08:22:11;;;;;;;3.07;2.20;;;23.60;70.80;;;;;;5115097;28;20845;-71
2022/10/24 08:24:39;;;;;;;1.90;1.73;;;23.60;70.80;;;;;;5117071;28;20463;-73
2022/10/24 08:27:09;;;;;;;2.50;2.10;;;23.60;70.80;;;;;;5115598;28;20830;-71
2022/10/24 08:29:37;;;;;;;6.03;1.67;;;23.60;70.70;;;;;;5115486;28;20493;-70
2022/10/24 08:32:06;;;;;;;2.57;1.33;;;23.60;70.70;;;;;;5119859;28;20788;-71
2022/10/24 08:34:34;;;;;;;3.43;2.60;;;23.60;70.70;;;;;;5117216;28;20788;-71
2022/10/24 08:37:04;;;;;;;2.80;1.90;;;23.60;70.70;;;;;;5114845;28;20487;-72
2022/10/24 08:39:32;;;;;;;5.23;2.47;;;23.60;70.70;;;;;;5114013;28;20453;-70
2022/10/24 08:42:03;;;;;;;2.10;1.87;;;23.60;70.70;;;;;;5108952;28;20454;-71
2022/10/24 08:44:35;;;;;;;2.90;1.77;;;23.60;70.70;;;;;;5111046;28;20478;-72
2022/10/24 08:47:10;;;;;;;2.63;2.37;;;23.60;70.70;;;;;;5116983;28;20973;-71
2022/10/24 08:49:42;;;;;;;3.37;2.50;;;23.60;70.70;;;;;;5115872;28;20465;-71
2022/10/24 08:52:29;;;;;;;4.07;2.00;;;23.60;70.70;;;;;;5118832;28;20885;-71
2022/10/24 08:55:00;;;;;;;3.90;2.60;;;23.60;70.70;;;;;;5113344;28;20460;-71
2022/10/24 08:57:34;;;;;;;2.37;2.03;;;23.60;70.70;;;;;;5115841;27;20463;-71
2022/10/24 09:00:12;;;;;;;5.63;2.20;;;23.60;70.70;;;;;;5118582;27;20485;-71
2022/10/24 09:02:46;;;;;;;2.23;2.00;;;23.60;70.70;;;;;;5119887;27;20466;-71
2022/10/24 09:05:22;;;;;;;3.37;1.83;;;23.60;70.70;;;;;;5122677;27;20467;-72
2022/10/24 09:07:55;;;;;;;2.93;2.10;;;23.60;70.80;;;;;;5123545;27;20461;-71
2022/10/24 09:10:33;;;;;;;2.13;1.60;;;23.60;70.80;;;;;;5126024;27;20469;-71
2022/10/24 09:13:01;;;;;;;4.40;1.77;;;23.60;70.70;;;;;;5127110;27;20488;-71
2022/10/24 09:15:31;;;;;;;2.33;1.80;;;23.60;70.70;;;;;;5126568;27;20505;-72
2022/10/24 09:17:59;;;;;;;1.70;1.60;;;23.70;70.70;;;;;;5115966;27;20451;-72
2022/10/24 09:20:32;;;;;;;2.30;1.80;;;23.70;70.70;;;;;;5119445;27;20981;-71
2022/10/24 09:23:03;;;;;;;5.83;1.90;;;23.70;70.70;;;;;;5121286;27;20464;-72
2022/10/24 09:25:35;;;;;;;4.27;1.90;;;23.70;70.70;;;;;;5116016;27;20889;-71
2022/10/24 09:28:05;;;;;;;4.90;2.00;;;23.70;70.70;;;;;;5127702;27;20516;-71
2022/10/24 09:30:36;;;;;;;2.80;2.00;;;23.70;70.70;;;;;;5129733;27;20560;-72
2022/10/24 09:33:15;;;;;;;3.63;2.10;;;23.60;70.80;;;;;;5124099;27;20452;-72
2022/10/24 09:35:44;;;;;;;4.00;2.63;;;23.60;70.80;;;;;;5125781;27;20548;-71
2022/10/24 09:38:32;;;;;;;2.20;1.73;;;23.60;70.80;;;;;;5126910;27;20455;-71
2022/10/24 09:41:04;;;;;;;2.50;2.00;;;23.60;70.80;;;;;;5123753;27;20462;-72
2022/10/24 09:43:37;;;;;;;3.60;1.77;;;23.60;70.80;;;;;;5110505;28;20435;-71
2022/10/24 09:46:10;;;;;;;2.20;1.83;;;23.60;70.80;;;;;;5120726;27;20494;-71
2022/10/24 09:48:54;;;;;;;2.60;1.80;;;23.60;70.90;;;;;;5115433;27;20446;-71
2022/10/24 09:51:31;;;;;;;2.30;1.53;;;23.60;70.90;;;;;;5108888;28;20458;-72
2022/10/24 09:54:06;;;;;;;2.27;1.70;;;23.60;70.90;;;;;;5111936;27;20545;-72
2022/10/24 09:56:38;;;;;;;3.47;1.43;;;23.60;70.80;;;;;;5112394;27;20505;-71
2022/10/24 09:59:29;;;;;;;2.50;1.77;;;23.60;70.90;;;;;;5105585;27;20462;-71
2022/10/24 10:02:25;;;;;;;4.70;3.27;;;23.60;70.80;;;;;;5119445;27;20457;-71
2022/10/24 10:05:21;;;;;;;4.50;2.53;;;23.60;70.90;;;;;;5122431;27;20445;-71
2022/10/24 10:07:50;;;;;;;1.63;1.53;;;23.60;70.80;;;;;;5079034;27;20468;-71
2022/10/24 10:10:31;;;;;;;1.80;1.67;;;23.60;70.80;;;;;;5116104;27;20474;-71
2022/10/24 10:13:03;;;;;;;1.70;1.60;;;23.60;70.90;;;;;;5118696;27;20488;-71
2022/10/24 10:15:36;;;;;;;2.03;1.43;;;23.60;70.90;;;;;;5119114;27;20451;-71
2022/10/24 10:18:23;;;;;;;2.77;1.63;;;23.60;70.90;;;;;;5121673;27;20470;-70
2022/10/24 10:21:01;;;;;;;5.00;1.80;;;23.50;70.90;;;;;;5130992;27;20908;-70
2022/10/24 10:23:32;;;;;;;2.60;1.57;;;23.60;70.90;;;;;;5118330;27;20453;-71
2022/10/24 10:26:16;;;;;;;2.47;1.83;;;23.50;71.00;;;;;;5117005;27;21003;-70
2022/10/24 10:29:06;;;;;;;2.90;1.80;;;23.50;71.00;;;;;;5119015;27;20549;-71
2022/10/24 10:31:42;;;;;;;2.13;1.73;;;23.50;71.00;;;;;;5106108;27;20543;-70
2022/10/24 10:34:17;;;;;;;4.03;2.00;;;23.50;71.00;;;;;;5117296;27;20504;-71
2022/10/24 10:37:22;;;;;;;1.77;1.50;;;23.50;71.10;;;;;;5128935;27;20778;-72
2022/10/24 10:40:19;;;;;;;4.17;1.70;;;23.50;71.20;;;;;;5082162;27;20466;-71
2022/10/24 10:43:04;;;;;;;3.33;2.40;;;23.50;71.10;;;;;;5120636;27;20851;-71
2022/10/24 10:45:38;;;;;;;5.17;1.90;;;23.50;71.10;;;;;;5125647;27;20495;-71
2022/10/24 10:48:22;;;;;;;5.20;1.80;;;23.50;71.10;;;;;;5119850;27;21168;-72
2022/10/24 10:50:56;;;;;;;2.10;1.67;;;23.50;71.10;;;;;;5119045;27;20474;-71
2022/10/24 10:53:33;;;;;;;2.47;1.83;;;23.50;71.10;;;;;;5124445;27;20461;-70
2022/10/24 10:56:16;;;;;;;2.93;2.23;;;23.50;71.10;;;;;;5133356;27;20435;-71
2022/10/24 10:58:56;;;;;;;2.93;1.83;;;23.50;71.20;;;;;;5131151;27;20736;-70
2022/10/24 11:01:32;;;;;;;2.53;1.80;;;23.50;71.20;;;;;;5120498;27;20480;-70
2022/10/24 11:04:08;;;;;;;4.07;1.80;;;23.50;71.20;;;;;;5132349;27;20443;-71
2022/10/24 11:06:46;;;;;;;2.17;1.97;;;23.40;71.20;;;;;;5132589;27;20452;-71
2022/10/24 11:09:36;;;;;;;5.17;2.13;;;23.40;71.30;;;;;;5118626;27;20504;-72
2022/10/24 11:12:11;;;;;;;2.23;2.03;;;23.40;71.40;;;;;;5120826;27;20523;-73
2022/10/24 11:14:43;;;;;;;1.80;1.70;;;23.40;71.40;;;;;;5113398;27;20801;-74
2022/10/24 11:17:16;;;;;;;4.83;2.43;;;23.40;71.40;;;;;;5116540;27;20546;-72
2022/10/24 11:19:56;;;;;;;3.63;2.50;;;23.40;71.40;;;;;;5117375;27;20522;-72
2022/10/24 11:22:28;;;;;;;3.50;2.10;;;23.50;71.50;;;;;;5117676;27;20451;-72
2022/10/24 11:25:02;;;;;;;3.60;2.67;;;23.50;71.50;;;;;;5118814;27;20533;-72
2022/10/24 11:27:38;;;;;;;4.27;2.47;;;23.50;71.60;;;;;;5111543;27;20602;-72
2022/10/24 11:30:14;;;;;;;5.83;2.13;;;23.50;71.60;;;;;;5120744;27;20950;-74
2022/10/24 11:32:49;;;;;;;3.73;2.33;;;23.50;71.70;;;;;;5119386;27;20456;-72
2022/10/24 11:35:25;;;;;;;2.93;2.37;;;23.50;71.80;;;;;;5118220;27;20463;-72
2022/10/24 11:37:59;;;;;;;5.47;2.70;;;23.50;71.90;;;;;;5119206;27;20528;-75
2022/10/24 11:40:30;;;;;;;2.63;2.30;;;23.50;71.90;;;;;;5116412;27;20453;-74
2022/10/24 11:43:06;;;;;;;4.60;3.03;;;23.50;71.90;;;;;;5115583;27;20460;-75
2022/10/24 11:45:42;;;;;;;7.37;2.37;;;23.50;71.90;;;;;;5119671;27;20485;-75
2022/10/24 11:48:17;;;;;;;3.80;2.40;;;23.50;71.90;;;;;;5119663;27;20449;-75
2022/10/24 11:50:49;;;;;;;3.43;2.20;;;23.50;71.80;;;;;;5116952;27;20566;-75
2022/10/24 11:53:39;;;;;;;7.53;2.13;;;23.50;71.80;;;;;;5117216;27;20822;-72
2022/10/24 11:56:16;;;;;;;6.10;2.47;;;23.50;71.70;;;;;;5112979;27;21022;-74
2022/10/24 11:58:53;;;;;;;5.40;2.03;;;23.60;71.60;;;;;;5119830;27;20463;-73
2022/10/24 12:01:50;;;;;;;3.77;1.67;;;23.60;71.60;;;;;;5119713;27;20455;-74
2022/10/24 12:04:57;;;;;;;3.47;2.13;;;23.60;71.50;;;;;;5116199;28;20509;-74
2022/10/24 12:08:12;;;;;;;3.00;1.53;;;23.60;71.50;;;;;;5097075;27;20473;-74
2022/10/24 12:11:00;;;;;;;4.33;2.63;;;23.60;71.50;;;;;;5116690;27;20838;-73
2022/10/24 12:13:43;;;;;;;4.57;2.00;;;23.60;72.10;;;;;;5116458;27;20495;-74
2022/10/24 12:16:22;;;;;;;8.70;3.00;;;23.60;72.00;;;;;;5111277;28;20975;-72
2022/10/24 12:18:56;;;;;;;6.40;3.30;;;23.60;72.20;;;;;;5124540;28;20526;-72
2022/10/24 12:21:28;;;;;;;4.20;2.67;;;23.60;73.50;;;;;;5121647;27;20533;-71
2022/10/24 12:23:59;;;;;;;7.30;3.20;;;23.60;74.00;;;;;;5114740;28;20449;-73
2022/10/24 12:26:31;;;;;;;10.30;2.97;;;23.60;74.30;;;;;;5111575;28;20544;-73
2022/10/24 12:29:01;;;;;;;7.07;2.90;;;23.60;74.10;;;;;;5110490;28;20438;-73
2022/10/24 12:31:31;;;;;;;7.83;4.20;;;23.60;74.00;;;;;;5117380;27;20480;-74
2022/10/24 12:34:36;;;;;;;3.77;2.00;;;23.60;74.00;;;;;;5116087;28;20498;-75
2022/10/24 12:37:10;;;;;;;8.40;2.77;;;23.60;74.00;;;;;;5102458;28;20463;-74
2022/10/24 12:39:41;;;;;;;5.60;2.60;;;23.60;74.00;;;;;;5115664;27;20450;-74
2022/10/24 12:42:36;;;;;;;6.00;3.53;;;23.60;74.00;;;;;;5133388;27;20467;-74
2022/10/24 12:45:29;;;;;;;7.80;2.80;;;23.70;73.80;;;;;;5115204;28;20461;-74
2022/10/24 12:48:28;;;;;;;2.90;2.70;;;23.70;73.50;;;;;;5117311;27;20451;-74
2022/10/24 12:51:21;;;;;;;4.87;2.03;;;23.70;73.50;;;;;;5124778;27;20470;-74
2022/10/24 12:54:15;;;;;;;4.53;2.07;;;23.70;73.50;;;;;;5117048;27;20557;-75
2022/10/24 12:57:32;;;;;;;6.10;2.27;;;23.70;73.20;;;;;;5122986;27;20466;-75
2022/10/24 13:00:01;;;;;;;4.13;2.57;;;23.70;73.10;;;;;;5044574;28;20461;-72
2022/10/24 13:02:53;;;;;;;3.93;2.00;;;23.70;72.90;;;;;;5111125;27;20460;-72
2022/10/24 13:05:48;;;;;;;2.43;2.23;;;23.70;72.70;;;;;;5118731;27;20457;-73
2022/10/24 13:08:42;;;;;;;3.43;2.00;;;23.70;72.50;;;;;;5120821;27;20593;-73
2022/10/24 13:11:36;;;;;;;3.23;1.70;;;23.70;72.50;;;;;;5123042;27;20995;-73
2022/10/24 13:14:27;;;;;;;5.30;2.50;;;23.70;72.30;;;;;;5127436;27;20478;-73
2022/10/24 13:17:05;;;;;;;4.07;2.20;;;23.70;72.20;;;;;;5124678;27;20462;-73